createdAt,value
2018-03-27T00:01:31.068Z,30.05
2018-03-27T00:03:57.206Z,27.83
2018-03-27T00:06:23.364Z,27.00
2018-03-27T00:08:49.496Z,28.15
2018-03-27T00:11:15.661Z,30.83
2018-03-27T00:13:41.831Z,30.12
2018-03-27T00:16:08.013Z,30.30
2018-03-27T00:18:34.156Z,29.40
2018-03-27T00:21:00.321Z,30.35
2018-03-27T00:23:26.471Z,28.33
2018-03-27T00:25:52.621Z,29.77
2018-03-27T00:28:31.246Z,28.38
2018-03-27T00:31:09.642Z,31.00
2018-03-27T00:33:48.029Z,31.65
2018-03-27T00:36:27.122Z,28.60
2018-03-27T00:39:05.554Z,30.60
2018-03-27T00:44:41.440Z,30.02
2018-03-27T00:47:07.939Z,30.50
2018-03-27T00:49:35.119Z,29.00
2018-03-27T00:52:01.560Z,31.20
2018-03-27T00:54:32.388Z,29.25
2018-03-27T00:56:58.809Z,29.75
2018-03-27T00:59:25.242Z,29.50
2018-03-27T01:04:51.380Z,29.92
2018-03-27T01:07:18.548Z,30.33
2018-03-27T01:09:45.936Z,29.75
2018-03-27T01:12:13.087Z,30.12
2018-03-27T01:14:51.277Z,28.62
2018-03-27T01:17:17.714Z,29.90
2018-03-27T01:19:44.178Z,30.52
2018-03-27T01:22:12.744Z,29.40
2018-03-27T01:24:39.176Z,29.67
2018-03-27T01:27:05.640Z,30.60
2018-03-27T01:29:32.944Z,30.25
2018-03-27T01:31:59.382Z,31.35
2018-03-27T01:34:26.542Z,33.20
2018-03-27T01:36:53.750Z,30.95
2018-03-27T01:39:20.163Z,32.88
2018-03-27T01:41:46.646Z,32.22
2018-03-27T01:44:13.075Z,31.77
2018-03-27T01:46:40.261Z,30.08
2018-03-27T01:49:21.045Z,28.25
2018-03-27T01:51:48.200Z,28.15
2018-03-27T01:54:15.389Z,23.52
2018-03-27T01:56:49.925Z,22.27
2018-03-27T01:59:17.093Z,22.00
2018-03-27T02:01:44.258Z,23.77
2018-03-27T02:04:11.428Z,20.88
2018-03-27T02:06:47.449Z,23.52
2018-03-27T02:09:13.883Z,22.23
2018-03-27T02:11:46.245Z,22.40
2018-03-27T02:14:35.110Z,21.00
2018-03-27T02:17:07.644Z,21.17
2018-03-27T02:19:40.202Z,21.52
2018-03-27T02:22:06.506Z,21.27
2018-03-27T02:24:38.216Z,21.50
2018-03-27T02:27:05.390Z,20.10
2018-03-27T02:29:32.538Z,21.30
2018-03-27T02:31:58.947Z,21.95
2018-03-27T02:34:47.731Z,21.80
2018-03-27T02:37:14.191Z,22.33
2018-03-27T02:39:40.686Z,21.87
2018-03-27T02:42:07.140Z,23.33
2018-03-27T02:44:33.547Z,24.67
2018-03-27T02:50:05.476Z,23.80
2018-03-27T02:52:32.650Z,22.58
2018-03-27T02:54:59.903Z,25.15
2018-03-27T02:57:27.070Z,23.20
2018-03-27T02:59:59.428Z,25.17
2018-03-27T03:02:25.838Z,23.40
2018-03-27T03:04:52.254Z,22.33
2018-03-27T03:07:18.725Z,23.30
2018-03-27T03:09:47.161Z,23.48
2018-03-27T03:12:13.611Z,21.37
2018-03-27T03:14:40.006Z,23.58
2018-03-27T03:17:06.446Z,21.87
2018-03-27T03:19:50.232Z,21.98
2018-03-27T03:22:16.696Z,23.73
2018-03-27T03:24:43.102Z,23.90
2018-03-27T03:27:09.490Z,23.70
2018-03-27T03:29:35.979Z,25.12
2018-03-27T03:32:03.206Z,23.73
2018-03-27T03:34:29.713Z,23.77
2018-03-27T03:36:57.553Z,23.87
2018-03-27T03:39:24.127Z,23.95
2018-03-27T03:41:51.969Z,22.70
2018-03-27T03:44:18.417Z,22.30
2018-03-27T03:46:44.844Z,24.45
2018-03-27T03:49:12.031Z,21.20
2018-03-27T03:51:39.637Z,24.83
2018-03-27T03:54:06.007Z,23.35
2018-03-27T03:56:32.524Z,24.27
2018-03-27T03:58:58.933Z,24.12
2018-03-27T04:01:25.362Z,23.12
2018-03-27T04:03:51.764Z,21.92
2018-03-27T04:06:19.018Z,21.50
2018-03-27T04:08:46.345Z,26.42
2018-03-27T04:11:12.832Z,29.35
2018-03-27T04:13:39.356Z,25.00
2018-03-27T04:16:06.886Z,26.10
2018-03-27T04:18:33.334Z,30.92
2018-03-27T04:20:59.782Z,25.77
2018-03-27T04:23:26.252Z,21.92
2018-03-27T04:25:53.683Z,23.20
2018-03-27T04:28:20.818Z,22.35
2018-03-27T04:30:48.006Z,21.67
2018-03-27T04:33:15.607Z,24.42
2018-03-27T04:35:42.879Z,25.00
2018-03-27T04:38:10.062Z,23.08
2018-03-27T04:40:38.608Z,24.52
2018-03-27T04:43:05.085Z,24.48
2018-03-27T04:45:32.249Z,23.05
2018-03-27T04:47:58.680Z,23.70
2018-03-27T04:50:25.147Z,24.17
2018-03-27T04:52:51.566Z,23.12
2018-03-27T04:55:18.000Z,25.27
2018-03-27T04:57:45.167Z,23.58
2018-03-27T05:00:12.330Z,21.00
2018-03-27T05:02:39.540Z,23.45
2018-03-27T05:05:06.030Z,23.33
2018-03-27T05:07:32.464Z,23.87
2018-03-27T05:09:59.817Z,21.65
2018-03-27T05:12:26.328Z,22.25
2018-03-27T05:14:52.941Z,23.83
2018-03-27T05:17:19.381Z,22.87
2018-03-27T05:19:46.575Z,22.42
2018-03-27T05:22:13.128Z,23.52
2018-03-27T05:24:39.571Z,25.05
2018-03-27T05:27:06.685Z,23.70
2018-03-27T05:29:33.110Z,23.20
2018-03-27T05:31:59.518Z,23.67
2018-03-27T05:34:26.012Z,24.70
2018-03-27T05:36:53.148Z,24.12
2018-03-27T05:39:19.591Z,23.83
2018-03-27T05:41:46.101Z,23.58
2018-03-27T05:44:13.279Z,22.60
2018-03-27T05:46:39.704Z,24.48
2018-03-27T05:49:06.884Z,23.58
2018-03-27T05:51:33.299Z,23.92
2018-03-27T05:53:59.723Z,23.83
2018-03-27T05:56:26.158Z,28.60
2018-03-27T05:58:53.648Z,26.17
2018-03-27T06:01:20.852Z,27.77
2018-03-27T06:03:47.256Z,29.58
2018-03-27T06:06:13.648Z,28.35
2018-03-27T06:08:40.060Z,25.80
2018-03-27T06:11:06.481Z,23.60
2018-03-27T06:13:32.964Z,22.08
2018-03-27T06:15:59.557Z,23.55
2018-03-27T06:18:26.879Z,22.33
2018-03-27T06:20:53.316Z,22.52
2018-03-27T06:23:19.847Z,21.27
2018-03-27T06:25:47.024Z,22.27
2018-03-27T06:28:13.474Z,21.60
2018-03-27T06:30:40.710Z,21.75
2018-03-27T06:33:07.208Z,22.55
2018-03-27T06:35:33.663Z,22.90
2018-03-27T06:38:00.938Z,25.40
2018-03-27T06:40:27.418Z,28.65
2018-03-27T06:42:54.265Z,31.60
2018-03-27T06:45:20.693Z,43.45
2018-03-27T06:47:47.373Z,31.37
2018-03-27T06:50:13.786Z,27.62
2018-03-27T06:52:40.261Z,27.45
2018-03-27T06:55:07.564Z,26.05
2018-03-27T06:57:34.950Z,26.45
2018-03-27T07:00:01.578Z,24.52
2018-03-27T07:02:29.007Z,23.92
2018-03-27T07:04:55.469Z,25.65
2018-03-27T07:07:22.003Z,26.52
2018-03-27T07:09:48.470Z,25.40
2018-03-27T07:12:14.955Z,25.35
2018-03-27T07:14:41.521Z,25.10
2018-03-27T07:17:08.798Z,23.87
2018-03-27T07:19:36.012Z,25.40
2018-03-27T07:22:02.463Z,24.17
2018-03-27T07:24:30.257Z,24.02
2018-03-27T07:26:56.749Z,25.50
2018-03-27T07:29:23.161Z,24.70
2018-03-27T07:31:50.442Z,25.17
2018-03-27T07:34:18.178Z,25.00
2018-03-27T07:36:44.600Z,25.65
2018-03-27T07:39:11.043Z,26.77
2018-03-27T07:41:37.502Z,27.10
2018-03-27T07:44:03.982Z,26.90
2018-03-27T07:46:30.510Z,24.98
2018-03-27T07:48:56.974Z,26.10
2018-03-27T07:51:23.414Z,23.80
2018-03-27T07:53:50.588Z,25.80
2018-03-27T07:56:17.868Z,27.90
2018-03-27T07:58:45.036Z,25.98
2018-03-27T08:01:12.182Z,25.85
2018-03-27T08:03:38.772Z,26.25
2018-03-27T08:06:06.052Z,26.73
2018-03-27T08:08:32.525Z,25.77
2018-03-27T08:10:59.099Z,26.55
2018-03-27T08:13:25.539Z,28.17
2018-03-27T08:15:52.077Z,31.10
2018-03-27T08:18:19.223Z,25.95
2018-03-27T08:20:45.704Z,33.25
2018-03-27T08:23:12.885Z,28.77
2018-03-27T08:25:39.316Z,25.35
2018-03-27T08:28:06.469Z,27.73
2018-03-27T08:30:32.917Z,23.95
2018-03-27T08:32:59.332Z,25.55
2018-03-27T08:35:25.876Z,25.52
2018-03-27T08:37:52.325Z,26.67
2018-03-27T08:40:19.471Z,25.35
2018-03-27T08:42:45.960Z,26.55
2018-03-27T08:45:13.108Z,25.27
2018-03-27T08:47:40.264Z,25.98
2018-03-27T08:50:06.867Z,26.75
2018-03-27T08:52:33.319Z,22.62
2018-03-27T08:55:00.486Z,19.15
2018-03-27T08:57:27.665Z,19.05
2018-03-27T08:59:54.843Z,19.58
2018-03-27T09:02:21.396Z,21.20
2018-03-27T09:04:47.881Z,21.17
2018-03-27T09:07:14.317Z,19.80
2018-03-27T09:09:40.743Z,20.25
2018-03-27T09:12:07.151Z,17.67
2018-03-27T09:14:33.565Z,18.58
2018-03-27T09:17:00.764Z,18.30
2018-03-27T09:19:27.179Z,19.40
2018-03-27T09:21:54.632Z,18.25
2018-03-27T09:24:21.136Z,18.65
2018-03-27T09:26:48.284Z,18.80
2018-03-27T09:29:14.728Z,17.37
2018-03-27T09:31:41.900Z,16.30
2018-03-27T09:34:08.316Z,19.12
2018-03-27T09:36:34.851Z,16.58
2018-03-27T09:39:01.295Z,16.87
2018-03-27T09:41:28.466Z,15.60
2018-03-27T09:43:55.795Z,16.48
2018-03-27T09:46:22.294Z,15.65
2018-03-27T09:48:48.708Z,16.52
2018-03-27T09:51:15.223Z,15.77
2018-03-27T09:53:42.831Z,17.40
2018-03-27T09:56:09.246Z,13.65
2018-03-27T09:58:36.418Z,12.15
2018-03-27T10:01:08.542Z,11.63
2018-03-27T10:03:34.995Z,16.00
2018-03-27T10:06:01.407Z,12.80
2018-03-27T10:08:27.949Z,11.77
2018-03-27T10:10:55.160Z,12.20
2018-03-27T10:13:21.580Z,13.00
2018-03-27T10:15:48.046Z,10.90
2018-03-27T10:18:14.630Z,11.02
2018-03-27T10:20:41.088Z,10.98
2018-03-27T10:23:08.300Z,10.93
2018-03-27T10:25:34.760Z,10.90
2018-03-27T10:28:01.330Z,11.32
2018-03-27T10:30:27.831Z,11.70
2018-03-27T10:32:54.982Z,10.93
2018-03-27T10:35:21.563Z,13.25
2018-03-27T10:37:48.020Z,12.52
2018-03-27T10:40:15.292Z,12.23
2018-03-27T10:42:42.494Z,12.65
2018-03-27T10:45:08.942Z,11.10
2018-03-27T10:47:35.481Z,11.75
2018-03-27T10:50:01.892Z,13.20
2018-03-27T10:52:28.335Z,11.77
2018-03-27T10:54:54.776Z,14.43
2018-03-27T10:57:21.215Z,13.07
2018-03-27T10:59:47.663Z,10.80
2018-03-27T11:02:14.121Z,12.10
2018-03-27T11:04:40.605Z,11.55
2018-03-27T11:07:07.085Z,10.98
2018-03-27T11:09:34.258Z,13.23
2018-03-27T11:12:00.766Z,11.45
2018-03-27T11:14:27.261Z,11.77
2018-03-27T11:16:53.763Z,16.60
2018-03-27T11:19:20.257Z,14.82
2018-03-27T11:21:46.789Z,12.00
2018-03-27T11:24:14.066Z,12.75
2018-03-27T11:26:41.493Z,13.70
2018-03-27T11:29:08.824Z,14.23
2018-03-27T11:31:35.326Z,12.85
2018-03-27T11:34:01.783Z,11.63
2018-03-27T11:36:28.236Z,13.20
2018-03-27T11:38:54.743Z,16.40
2018-03-27T11:41:22.022Z,15.82
2018-03-27T11:43:49.235Z,17.52
2018-03-27T11:46:15.752Z,17.30
2018-03-27T11:48:42.942Z,15.93
2018-03-27T11:51:09.459Z,14.55
2018-03-27T11:53:35.965Z,14.68
2018-03-27T11:56:02.469Z,16.60
2018-03-27T11:58:28.915Z,16.02
2018-03-27T12:00:55.405Z,15.73
2018-03-27T12:03:21.969Z,15.90
2018-03-27T12:05:48.479Z,14.82
2018-03-27T12:08:14.932Z,15.38
2018-03-27T12:10:41.347Z,18.00
2018-03-27T12:13:08.203Z,16.30
2018-03-27T12:15:34.640Z,17.05
2018-03-27T12:18:01.932Z,16.17
2018-03-27T12:20:29.143Z,16.87
2018-03-27T12:22:55.613Z,17.80
2018-03-27T12:25:22.118Z,15.80
2018-03-27T12:27:49.270Z,16.65
2018-03-27T12:30:15.747Z,16.33
2018-03-27T12:32:42.308Z,15.60
2018-03-27T12:35:09.548Z,15.25
2018-03-27T12:37:36.101Z,14.68
2018-03-27T12:40:02.601Z,19.62
2018-03-27T12:42:29.046Z,14.02
2018-03-27T12:44:56.203Z,16.00
2018-03-27T12:47:22.672Z,21.33
2018-03-27T12:49:50.333Z,13.75
2018-03-27T12:52:16.779Z,13.70
2018-03-27T12:54:43.209Z,12.95
2018-03-27T12:57:09.669Z,12.82
2018-03-27T12:59:36.809Z,11.40
2018-03-27T13:02:03.288Z,11.00
2018-03-27T13:04:29.785Z,13.57
2018-03-27T13:06:57.077Z,13.00
2018-03-27T13:09:24.299Z,13.90
2018-03-27T13:11:51.678Z,12.98
2018-03-27T13:14:19.531Z,13.68
2018-03-27T13:16:46.190Z,13.30
2018-03-27T13:19:13.488Z,14.02
2018-03-27T13:21:40.111Z,13.48
2018-03-27T13:37:08.876Z,13.65
2018-03-27T13:39:35.523Z,13.10
2018-03-27T13:42:03.427Z,13.50
2018-03-27T13:44:30.392Z,13.90
2018-03-27T13:46:56.952Z,12.55
2018-03-27T13:49:23.393Z,11.43
2018-03-27T13:51:50.682Z,11.70
2018-03-27T13:54:17.841Z,13.13
2018-03-27T13:56:45.126Z,11.65
2018-03-27T13:59:11.687Z,12.18
2018-03-27T14:01:38.555Z,12.25
2018-03-27T14:04:05.218Z,12.82
2018-03-27T14:06:31.785Z,12.98
2018-03-27T14:08:58.435Z,12.80
2018-03-27T14:11:26.014Z,12.45
2018-03-27T14:13:53.781Z,13.23
2018-03-27T14:16:21.073Z,12.80
2018-03-27T14:18:48.279Z,14.40
2018-03-27T14:21:14.771Z,13.50
2018-03-27T14:23:41.283Z,13.25
2018-03-27T14:26:07.734Z,14.48
2018-03-27T14:28:34.184Z,13.07
2018-03-27T14:31:00.840Z,11.75
2018-03-27T14:33:27.394Z,11.95
2018-03-27T14:35:54.577Z,12.10
2018-03-27T14:38:21.124Z,15.63
2018-03-27T14:40:48.498Z,14.65
2018-03-27T14:43:15.856Z,16.35
2018-03-27T14:45:42.642Z,17.50
2018-03-27T14:48:10.223Z,16.98
2018-03-27T14:50:37.601Z,16.73
2018-03-27T14:53:04.129Z,17.02
2018-03-27T14:55:30.718Z,15.25
2018-03-27T14:57:57.270Z,16.02
2018-03-27T15:00:24.244Z,15.43
2018-03-27T15:02:51.619Z,18.02
2018-03-27T15:05:18.182Z,18.87
2018-03-27T15:07:44.654Z,19.27
2018-03-27T15:10:11.129Z,16.42
2018-03-27T15:12:37.751Z,16.70
2018-03-27T15:15:05.337Z,17.10
2018-03-27T15:17:31.793Z,17.27
2018-03-27T15:19:58.256Z,17.30
2018-03-27T15:22:24.907Z,16.48
2018-03-27T15:24:51.569Z,16.70
2018-03-27T15:27:18.129Z,16.98
2018-03-27T15:29:44.623Z,16.58
2018-03-27T15:32:11.140Z,17.90
2018-03-27T15:34:38.371Z,18.70
2018-03-27T15:37:04.868Z,17.35
2018-03-27T15:39:32.961Z,14.40
2018-03-27T15:42:03.134Z,15.13
2018-03-27T15:44:29.725Z,16.05
2018-03-27T15:46:56.190Z,16.05
2018-03-27T15:49:22.696Z,15.50
2018-03-27T15:51:49.347Z,14.40
2018-03-27T15:54:16.103Z,15.90
2018-03-27T15:56:42.530Z,14.77
2018-03-27T15:59:08.994Z,15.52
2018-03-27T16:01:36.290Z,15.70
2018-03-27T16:04:02.845Z,16.35
2018-03-27T16:06:30.121Z,19.60
2018-03-27T16:08:57.603Z,19.10
2018-03-27T16:11:24.139Z,14.50
2018-03-27T16:13:52.151Z,14.90
2018-03-27T16:16:18.811Z,17.00
2018-03-27T16:18:45.472Z,16.25
2018-03-27T16:21:12.519Z,14.55
2018-03-27T16:23:39.104Z,14.35
2018-03-27T16:26:06.040Z,13.50
2018-03-27T16:28:32.468Z,14.77
2018-03-27T16:30:59.604Z,15.90
2018-03-27T16:33:26.251Z,14.50
2018-03-27T16:35:54.493Z,14.25
2018-03-27T16:38:21.614Z,15.60
2018-03-27T16:40:48.998Z,16.33
2018-03-27T16:43:15.496Z,14.75
2018-03-27T16:45:43.243Z,18.80
2018-03-27T16:48:10.311Z,17.20
2018-03-27T16:50:36.972Z,16.55
2018-03-27T16:53:04.653Z,15.80
2018-03-27T16:55:33.757Z,14.85
2018-03-27T16:58:02.168Z,14.43
2018-03-27T17:00:28.662Z,14.70
2018-03-27T17:02:57.205Z,15.55
2018-03-27T17:05:23.889Z,13.98
2018-03-27T17:07:50.549Z,14.73
2018-03-27T17:10:18.102Z,14.90
2018-03-27T17:12:44.601Z,15.50
2018-03-27T17:15:12.008Z,15.73
2018-03-27T17:17:38.524Z,18.15
2018-03-27T17:20:05.284Z,17.55
2018-03-27T17:22:31.997Z,14.98
2018-03-27T17:24:58.520Z,15.95
2018-03-27T17:27:25.068Z,17.65
2018-03-27T17:29:52.208Z,16.95
2018-03-27T17:32:18.693Z,17.08
2018-03-27T17:34:45.917Z,16.33
2018-03-27T17:37:14.274Z,17.35
2018-03-27T17:39:41.438Z,17.00
2018-03-27T17:42:10.922Z,17.65
2018-03-27T17:44:39.057Z,19.40
2018-03-27T17:47:08.766Z,15.52
2018-03-27T17:49:38.338Z,18.67
2018-03-27T17:52:05.158Z,18.67
2018-03-27T17:54:33.069Z,17.35
2018-03-27T17:56:59.565Z,18.60
2018-03-27T17:59:26.064Z,18.50
2018-03-27T18:01:55.607Z,17.90
2018-03-27T18:04:22.108Z,18.30
2018-03-27T18:06:50.560Z,17.42
2018-03-27T18:09:17.219Z,19.85
2018-03-27T18:11:44.672Z,21.87
2018-03-27T18:14:11.568Z,22.23
2018-03-27T18:16:38.201Z,19.85
2018-03-27T18:19:04.871Z,18.37
2018-03-27T18:21:32.144Z,21.10
2018-03-27T18:23:59.423Z,19.90
2018-03-27T18:26:25.894Z,17.52
2018-03-27T18:28:52.418Z,18.15
2018-03-27T18:31:19.851Z,17.55
2018-03-27T18:33:46.493Z,17.02
2018-03-27T18:36:12.954Z,17.50
2018-03-27T18:38:39.505Z,15.48
2018-03-27T18:41:06.058Z,16.52
2018-03-27T18:43:33.276Z,17.55
2018-03-27T18:45:59.900Z,16.80
2018-03-27T18:48:26.417Z,17.92
2018-03-27T18:50:53.066Z,15.98
2018-03-27T18:53:19.576Z,14.77
2018-03-27T18:55:46.142Z,16.05
2018-03-27T18:58:12.692Z,13.62
2018-03-27T19:00:40.067Z,13.75
2018-03-27T19:03:06.728Z,13.07
2018-03-27T19:05:34.154Z,13.82
2018-03-27T19:08:01.587Z,13.40
2018-03-27T19:10:28.953Z,13.73
2018-03-27T19:12:56.029Z,12.43
2018-03-27T19:15:23.002Z,13.00
2018-03-27T19:17:49.964Z,16.75
2018-03-27T19:20:18.847Z,16.40
2018-03-27T19:22:47.257Z,14.68
2018-03-27T19:25:14.759Z,18.00
2018-03-27T19:27:44.487Z,21.17
2018-03-27T19:30:11.102Z,22.00
2018-03-27T19:32:39.446Z,23.75
2018-03-27T19:35:06.819Z,26.50
2018-03-27T19:37:33.996Z,21.00
2018-03-27T19:40:01.160Z,18.55
2018-03-27T19:42:31.472Z,16.52
2018-03-27T19:44:59.785Z,15.25
2018-03-27T19:47:27.078Z,14.57
2018-03-27T19:49:54.381Z,13.25
2018-03-27T19:52:20.820Z,15.60
2018-03-27T19:54:47.300Z,14.80
2018-03-27T19:57:13.753Z,15.50
2018-03-27T19:59:40.332Z,15.70
2018-03-27T20:02:06.821Z,16.77
2018-03-27T20:04:34.128Z,15.77
2018-03-27T20:07:03.139Z,15.88
2018-03-27T20:09:29.638Z,17.35
2018-03-27T20:11:56.918Z,16.83
2018-03-27T20:14:23.520Z,17.50
2018-03-27T20:16:50.181Z,15.90
2018-03-27T20:19:16.614Z,15.75
2018-03-27T20:21:43.194Z,15.82
2018-03-27T20:24:10.424Z,16.37
2018-03-27T20:26:37.462Z,15.20
2018-03-27T20:29:04.141Z,15.35
2018-03-27T20:31:30.526Z,15.82
2018-03-27T20:33:58.788Z,15.68
2018-03-27T20:36:26.537Z,15.52
2018-03-27T20:38:53.176Z,17.08
2018-03-27T20:41:19.605Z,16.27
2018-03-27T20:43:46.746Z,16.02
2018-03-27T20:46:14.307Z,16.45
2018-03-27T20:48:40.695Z,17.30
2018-03-27T20:51:09.399Z,17.80
2018-03-27T20:53:36.537Z,18.42
2018-03-27T20:56:04.327Z,18.37
2018-03-27T20:58:30.711Z,18.00
2018-03-27T21:00:57.133Z,17.62
2018-03-27T21:03:23.794Z,16.55
2018-03-27T21:05:51.002Z,16.92
2018-03-27T21:08:17.446Z,18.02
2018-03-27T21:10:44.000Z,17.65
2018-03-27T21:13:10.414Z,16.42
2018-03-27T21:15:36.796Z,16.10
2018-03-27T21:18:03.248Z,15.88
2018-03-27T21:20:30.577Z,16.33
2018-03-27T21:22:57.073Z,17.35
2018-03-27T21:25:24.355Z,16.45
2018-03-27T21:27:51.510Z,16.87
2018-03-27T21:30:18.060Z,16.23
2018-03-27T21:32:44.544Z,16.62
2018-03-27T21:35:11.723Z,16.23
2018-03-27T21:37:38.158Z,16.45
2018-03-27T21:40:05.549Z,17.90
2018-03-27T21:42:32.707Z,18.92
2018-03-27T21:44:59.863Z,18.60
2018-03-27T21:47:26.301Z,18.00
2018-03-27T21:49:52.909Z,16.60
2018-03-27T21:52:19.326Z,17.35
2018-03-27T21:54:45.760Z,17.62
2018-03-27T21:57:13.356Z,19.05
2018-03-27T21:59:39.784Z,18.20
2018-03-27T22:02:06.213Z,17.05
2018-03-27T22:04:33.395Z,18.50
2018-03-27T22:06:59.777Z,19.30
2018-03-27T22:09:26.256Z,18.90
2018-03-27T22:11:52.576Z,20.65
2018-03-27T22:14:18.742Z,18.17
2018-03-27T22:16:44.900Z,19.70
2018-03-27T22:19:11.804Z,20.83
2018-03-27T22:21:37.966Z,24.17
2018-03-27T22:24:04.855Z,20.67
2018-03-27T22:26:31.017Z,19.48
2018-03-27T22:28:57.173Z,19.23
2018-03-27T22:31:23.431Z,18.92
2018-03-27T22:33:49.567Z,19.10
2018-03-27T22:36:15.722Z,19.17
2018-03-27T22:38:41.867Z,20.20
2018-03-27T22:41:08.787Z,19.55
2018-03-27T22:43:34.940Z,19.35
2018-03-27T22:46:01.863Z,17.52
2018-03-27T22:48:28.013Z,18.00
2018-03-27T22:50:54.897Z,18.80
2018-03-27T22:53:21.038Z,18.25
2018-03-27T22:55:47.210Z,18.17
2018-03-27T22:58:13.362Z,18.55
2018-03-27T23:00:39.530Z,18.02
2018-03-27T23:03:05.690Z,18.20
2018-03-27T23:05:31.860Z,18.67
2018-03-27T23:07:58.758Z,18.17
2018-03-27T23:10:24.924Z,19.02
2018-03-27T23:12:51.831Z,17.85
2018-03-27T23:15:18.017Z,17.65
2018-03-27T23:17:44.194Z,18.70
2018-03-27T23:20:10.342Z,20.15
2018-03-27T23:22:36.501Z,20.15
2018-03-27T23:25:02.680Z,18.45
2018-03-27T23:27:28.837Z,19.58
2018-03-27T23:29:54.989Z,18.08
2018-03-27T23:32:21.891Z,18.58
2018-03-27T23:34:48.080Z,17.92
2018-03-27T23:37:14.253Z,18.62
2018-03-27T23:39:40.419Z,17.92
2018-03-27T23:42:06.584Z,19.27
2018-03-27T23:44:32.740Z,20.20
2018-03-27T23:46:58.920Z,20.10
2018-03-27T23:49:25.071Z,19.08
2018-03-27T23:51:51.216Z,19.12
2018-03-27T23:54:17.388Z,20.23
2018-03-27T23:56:43.539Z,20.88
2018-03-27T23:59:09.680Z,19.55
